Mamoudzou, Yemen
Current Conditions -  °F | °C
As of 9:00 PM on Monday 20 Oct 2014 (Local Time) from FMCZ Reporting Station
Few Clouds Few Clouds  
Wind Chill: 79°   Ceiling: Unl
Heat Index: 82°   Visibility: 6mi
Dew Point: 73°   Wind: 9mph
Humidity: 83%   Direction: 220°SW
Pressure: 29.94"   Gusts: NA
Location:  12.8°S, 45.23°E
Report Text: FMCZ 201800Z AUTO 22008KT 9999 FEW018/// 26/23 Q1014
Loading
Personal Weather Stations






























Interactive Weather Map New forecast layout! Learn more

10-Day Weather Forecast

Advertisements
Track Severe Weather on mobile